sensor_id;sensor_type;location;lat;lon;timestamp;temperature;humidity
18773;DHT22;9515;50.810;4.418;2022-09-09T00:03:57;17.20;99.90
18773;DHT22;9515;50.810;4.418;2022-09-09T00:06:30;17.00;99.90
18773;DHT22;9515;50.810;4.418;2022-09-09T00:11:31;17.10;99.90
18773;DHT22;9515;50.810;4.418;2022-09-09T00:14:03;17.00;99.90
18773;DHT22;9515;50.810;4.418;2022-09-09T00:16:37;17.00;99.90
18773;DHT22;9515;50.810;4.418;2022-09-09T00:30:18;16.20;99.90
18773;DHT22;9515;50.810;4.418;2022-09-09T00:32:59;16.00;99.90
18773;DHT22;9515;50.810;4.418;2022-09-09T00:35:33;16.10;99.90
18773;DHT22;9515;50.810;4.418;2022-09-09T00:38:18;16.30;99.90
18773;DHT22;9515;50.810;4.418;2022-09-09T00:43:30;16.50;99.90
18773;DHT22;9515;50.810;4.418;2022-09-09T00:46:27;16.60;99.90
18773;DHT22;9515;50.810;4.418;2022-09-09T00:57:34;16.30;99.90
18773;DHT22;9515;50.810;4.418;2022-09-09T01:05:37;16.40;99.90
18773;DHT22;9515;50.810;4.418;2022-09-09T01:09:03;16.50;99.90
18773;DHT22;9515;50.810;4.418;2022-09-09T01:11:00;16.70;99.90
18773;DHT22;9515;50.810;4.418;2022-09-09T01:13:34;17.10;99.90
18773;DHT22;9515;50.810;4.418;2022-09-09T01:16:03;16.80;99.90
18773;DHT22;9515;50.810;4.418;2022-09-09T01:18:40;16.70;99.90
18773;DHT22;9515;50.810;4.418;2022-09-09T01:23:50;16.70;99.90
18773;DHT22;9515;50.810;4.418;2022-09-09T01:26:30;16.80;99.90
18773;DHT22;9515;50.810;4.418;2022-09-09T01:28:57;16.50;99.90
18773;DHT22;9515;50.810;4.418;2022-09-09T01:31:28;16.60;99.90
18773;DHT22;9515;50.810;4.418;2022-09-09T01:33:55;16.60;99.90
18773;DHT22;9515;50.810;4.418;2022-09-09T01:36:46;16.80;99.90
18773;DHT22;9515;50.810;4.418;2022-09-09T01:39:15;17.10;99.90
18773;DHT22;9515;50.810;4.418;2022-09-09T01:41:41;17.00;99.90
18773;DHT22;9515;50.810;4.418;2022-09-09T01:44:07;17.00;99.90
18773;DHT22;9515;50.810;4.418;2022-09-09T01:46:33;17.00;99.90
18773;DHT22;9515;50.810;4.418;2022-09-09T01:49:00;16.90;99.90
18773;DHT22;9515;50.810;4.418;2022-09-09T01:51:27;17.00;99.90
18773;DHT22;9515;50.810;4.418;2022-09-09T01:53:53;17.10;99.90
18773;DHT22;9515;50.810;4.418;2022-09-09T02:02:03;16.30;99.90
18773;DHT22;9515;50.810;4.418;2022-09-09T02:04:40;16.30;99.90
18773;DHT22;9515;50.810;4.418;2022-09-09T02:12:44;16.50;99.90
18773;DHT22;9515;50.810;4.418;2022-09-09T02:15:26;16.50;99.90
18773;DHT22;9515;50.810;4.418;2022-09-09T02:17:57;16.50;99.90
18773;DHT22;9515;50.810;4.418;2022-09-09T02:20:26;16.50;99.90
18773;DHT22;9515;50.810;4.418;2022-09-09T02:22:53;16.50;99.90
18773;DHT22;9515;50.810;4.418;2022-09-09T02:25:24;16.60;99.90
18773;DHT22;9515;50.810;4.418;2022-09-09T02:27:51;16.70;99.90
18773;DHT22;9515;50.810;4.418;2022-09-09T02:30:18;16.70;99.90
18773;DHT22;9515;50.810;4.418;2022-09-09T02:32:47;16.60;99.90
18773;DHT22;9515;50.810;4.418;2022-09-09T02:35:17;16.40;99.90
18773;DHT22;9515;50.810;4.418;2022-09-09T02:37:45;16.40;99.90
18773;DHT22;9515;50.810;4.418;2022-09-09T02:40:15;16.50;99.90
18773;DHT22;9515;50.810;4.418;2022-09-09T02:42:46;16.40;99.90
18773;DHT22;9515;50.810;4.418;2022-09-09T02:45:16;16.40;99.90
18773;DHT22;9515;50.810;4.418;2022-09-09T02:53:48;16.50;99.90
18773;DHT22;9515;50.810;4.418;2022-09-09T02:56:18;16.50;99.90
18773;DHT22;9515;50.810;4.418;2022-09-09T02:58:45;16.40;99.90
18773;DHT22;9515;50.810;4.418;2022-09-09T03:01:12;16.30;99.90
18773;DHT22;9515;50.810;4.418;2022-09-09T03:03:38;16.40;99.90
18773;DHT22;9515;50.810;4.418;2022-09-09T03:06:04;16.50;99.90
18773;DHT22;9515;50.810;4.418;2022-09-09T03:08:31;16.50;99.90
18773;DHT22;9515;50.810;4.418;2022-09-09T03:10:58;16.60;99.90
18773;DHT22;9515;50.810;4.418;2022-09-09T03:13:26;16.80;99.90
18773;DHT22;9515;50.810;4.418;2022-09-09T03:15:52;16.70;99.90
18773;DHT22;9515;50.810;4.418;2022-09-09T03:18:17;16.70;99.90
18773;DHT22;9515;50.810;4.418;2022-09-09T03:20:43;16.70;99.90
18773;DHT22;9515;50.810;4.418;2022-09-09T03:23:09;16.70;99.90
18773;DHT22;9515;50.810;4.418;2022-09-09T03:25:35;16.80;99.90
18773;DHT22;9515;50.810;4.418;2022-09-09T03:28:01;16.40;99.90
18773;DHT22;9515;50.810;4.418;2022-09-09T03:30:28;16.10;99.90
18773;DHT22;9515;50.810;4.418;2022-09-09T03:32:54;16.10;99.90
18773;DHT22;9515;50.810;4.418;2022-09-09T03:35:20;16.30;99.90
18773;DHT22;9515;50.810;4.418;2022-09-09T03:37:47;16.30;99.90
18773;DHT22;9515;50.810;4.418;2022-09-09T03:40:13;16.40;99.90
18773;DHT22;9515;50.810;4.418;2022-09-09T03:42:39;16.20;99.90
18773;DHT22;9515;50.810;4.418;2022-09-09T03:45:07;16.20;99.90
18773;DHT22;9515;50.810;4.418;2022-09-09T03:47:34;16.30;99.90
18773;DHT22;9515;50.810;4.418;2022-09-09T03:50:00;16.20;99.90
18773;DHT22;9515;50.810;4.418;2022-09-09T03:52:26;16.30;99.90
18773;DHT22;9515;50.810;4.418;2022-09-09T03:54:53;16.30;99.90
18773;DHT22;9515;50.810;4.418;2022-09-09T03:57:19;16.30;99.90
18773;DHT22;9515;50.810;4.418;2022-09-09T03:59:45;16.20;99.90
18773;DHT22;9515;50.810;4.418;2022-09-09T04:02:11;16.00;99.90
18773;DHT22;9515;50.810;4.418;2022-09-09T04:04:36;16.10;99.90
18773;DHT22;9515;50.810;4.418;2022-09-09T04:07:02;16.20;99.90
18773;DHT22;9515;50.810;4.418;2022-09-09T04:09:28;16.40;99.90
18773;DHT22;9515;50.810;4.418;2022-09-09T04:11:53;16.30;99.90
18773;DHT22;9515;50.810;4.418;2022-09-09T04:14:20;16.30;99.90
18773;DHT22;9515;50.810;4.418;2022-09-09T04:16:46;16.30;99.90
18773;DHT22;9515;50.810;4.418;2022-09-09T04:19:12;16.30;99.90
18773;DHT22;9515;50.810;4.418;2022-09-09T04:21:42;16.40;99.90
18773;DHT22;9515;50.810;4.418;2022-09-09T04:24:08;16.40;99.90
18773;DHT22;9515;50.810;4.418;2022-09-09T04:26:35;16.30;99.90
18773;DHT22;9515;50.810;4.418;2022-09-09T04:29:02;16.10;99.90
18773;DHT22;9515;50.810;4.418;2022-09-09T04:31:29;16.20;99.90
18773;DHT22;9515;50.810;4.418;2022-09-09T04:33:55;16.20;99.90
18773;DHT22;9515;50.810;4.418;2022-09-09T04:36:21;16.40;99.90
18773;DHT22;9515;50.810;4.418;2022-09-09T04:38:47;16.10;99.90
18773;DHT22;9515;50.810;4.418;2022-09-09T04:41:14;16.20;99.90
18773;DHT22;9515;50.810;4.418;2022-09-09T04:43:50;16.00;99.90
18773;DHT22;9515;50.810;4.418;2022-09-09T04:46:32;16.00;99.90
18773;DHT22;9515;50.810;4.418;2022-09-09T04:49:17;16.00;99.90
18773;DHT22;9515;50.810;4.418;2022-09-09T04:51:49;16.00;99.90
18773;DHT22;9515;50.810;4.418;2022-09-09T04:54:15;16.00;99.90
18773;DHT22;9515;50.810;4.418;2022-09-09T04:56:41;15.90;99.90
18773;DHT22;9515;50.810;4.418;2022-09-09T04:59:07;15.90;99.90
18773;DHT22;9515;50.810;4.418;2022-09-09T05:01:35;15.90;99.90
18773;DHT22;9515;50.810;4.418;2022-09-09T05:04:02;16.00;99.90
18773;DHT22;9515;50.810;4.418;2022-09-09T05:06:28;15.90;99.90
18773;DHT22;9515;50.810;4.418;2022-09-09T05:08:56;15.90;99.90
18773;DHT22;9515;50.810;4.418;2022-09-09T05:11:28;16.00;99.90
18773;DHT22;9515;50.810;4.418;2022-09-09T05:13:54;16.10;99.90
18773;DHT22;9515;50.810;4.418;2022-09-09T05:16:20;16.20;99.90
18773;DHT22;9515;50.810;4.418;2022-09-09T05:18:47;16.00;99.90
18773;DHT22;9515;50.810;4.418;2022-09-09T05:21:14;16.20;99.90
18773;DHT22;9515;50.810;4.418;2022-09-09T05:23:40;16.20;99.90
18773;DHT22;9515;50.810;4.418;2022-09-09T05:26:09;16.30;99.90
18773;DHT22;9515;50.810;4.418;2022-09-09T05:28:35;16.30;99.90
18773;DHT22;9515;50.810;4.418;2022-09-09T05:31:06;16.40;99.90
18773;DHT22;9515;50.810;4.418;2022-09-09T05:33:34;16.60;99.90
18773;DHT22;9515;50.810;4.418;2022-09-09T05:36:05;16.50;99.90
18773;DHT22;9515;50.810;4.418;2022-09-09T05:38:32;16.60;99.90
18773;DHT22;9515;50.810;4.418;2022-09-09T05:40:58;16.40;99.90
18773;DHT22;9515;50.810;4.418;2022-09-09T05:43:24;16.40;99.90
18773;DHT22;9515;50.810;4.418;2022-09-09T05:46:04;16.20;99.90
18773;DHT22;9515;50.810;4.418;2022-09-09T05:48:34;16.20;99.90
18773;DHT22;9515;50.810;4.418;2022-09-09T05:51:01;16.40;99.90
18773;DHT22;9515;50.810;4.418;2022-09-09T05:53:28;16.20;99.90
18773;DHT22;9515;50.810;4.418;2022-09-09T05:56:05;16.30;99.90
18773;DHT22;9515;50.810;4.418;2022-09-09T05:58:34;16.30;99.90
18773;DHT22;9515;50.810;4.418;2022-09-09T06:01:08;16.40;99.90
18773;DHT22;9515;50.810;4.418;2022-09-09T06:03:36;16.50;99.90
18773;DHT22;9515;50.810;4.418;2022-09-09T06:06:05;16.40;99.90
18773;DHT22;9515;50.810;4.418;2022-09-09T06:08:34;16.50;99.90
18773;DHT22;9515;50.810;4.418;2022-09-09T06:11:25;16.70;99.90
18773;DHT22;9515;50.810;4.418;2022-09-09T06:13:52;17.00;99.90
18773;DHT22;9515;50.810;4.418;2022-09-09T06:16:24;16.80;99.90
18773;DHT22;9515;50.810;4.418;2022-09-09T06:18:50;16.80;99.90
18773;DHT22;9515;50.810;4.418;2022-09-09T06:21:18;16.80;99.90
18773;DHT22;9515;50.810;4.418;2022-09-09T06:23:45;17.10;99.90
18773;DHT22;9515;50.810;4.418;2022-09-09T06:26:13;17.10;99.90
18773;DHT22;9515;50.810;4.418;2022-09-09T06:28:40;17.30;99.90
18773;DHT22;9515;50.810;4.418;2022-09-09T06:31:10;17.40;99.90
18773;DHT22;9515;50.810;4.418;2022-09-09T06:33:40;17.40;99.90
18773;DHT22;9515;50.810;4.418;2022-09-09T06:36:11;17.60;99.90
18773;DHT22;9515;50.810;4.418;2022-09-09T06:38:38;17.50;99.90
18773;DHT22;9515;50.810;4.418;2022-09-09T06:41:04;17.10;99.90
18773;DHT22;9515;50.810;4.418;2022-09-09T06:43:31;17.20;99.90
18773;DHT22;9515;50.810;4.418;2022-09-09T06:46:02;17.30;99.90
18773;DHT22;9515;50.810;4.418;2022-09-09T06:48:29;17.50;99.90
18773;DHT22;9515;50.810;4.418;2022-09-09T06:51:21;17.50;99.90
18773;DHT22;9515;50.810;4.418;2022-09-09T06:53:50;17.40;99.90
18773;DHT22;9515;50.810;4.418;2022-09-09T06:58:42;17.20;99.90
18773;DHT22;9515;50.810;4.418;2022-09-09T07:01:11;17.20;99.90
18773;DHT22;9515;50.810;4.418;2022-09-09T07:03:41;17.00;99.90
18773;DHT22;9515;50.810;4.418;2022-09-09T07:06:14;17.00;99.90
18773;DHT22;9515;50.810;4.418;2022-09-09T07:08:40;17.20;99.90
18773;DHT22;9515;50.810;4.418;2022-09-09T07:11:07;17.10;99.90
18773;DHT22;9515;50.810;4.418;2022-09-09T07:13:34;17.20;99.90
18773;DHT22;9515;50.810;4.418;2022-09-09T07:16:07;16.90;99.90
18773;DHT22;9515;50.810;4.418;2022-09-09T07:18:33;17.10;99.90
18773;DHT22;9515;50.810;4.418;2022-09-09T07:21:00;17.20;99.90
18773;DHT22;9515;50.810;4.418;2022-09-09T07:23:28;17.20;99.90
18773;DHT22;9515;50.810;4.418;2022-09-09T07:25:53;17.40;99.90
18773;DHT22;9515;50.810;4.418;2022-09-09T07:28:23;17.40;99.90
18773;DHT22;9515;50.810;4.418;2022-09-09T07:31:01;17.30;99.90
18773;DHT22;9515;50.810;4.418;2022-09-09T07:33:29;17.30;99.90
18773;DHT22;9515;50.810;4.418;2022-09-09T07:36:07;17.20;99.90
18773;DHT22;9515;50.810;4.418;2022-09-09T07:38:42;17.40;99.90
18773;DHT22;9515;50.810;4.418;2022-09-09T07:41:14;17.20;99.90
18773;DHT22;9515;50.810;4.418;2022-09-09T07:43:41;17.00;99.90
18773;DHT22;9515;50.810;4.418;2022-09-09T07:46:09;16.90;99.90
18773;DHT22;9515;50.810;4.418;2022-09-09T07:48:35;16.60;99.90
18773;DHT22;9515;50.810;4.418;2022-09-09T07:51:10;16.50;99.90
18773;DHT22;9515;50.810;4.418;2022-09-09T07:53:38;16.40;99.90
18773;DHT22;9515;50.810;4.418;2022-09-09T07:56:06;16.30;99.90
18773;DHT22;9515;50.810;4.418;2022-09-09T07:58:32;16.20;99.90
18773;DHT22;9515;50.810;4.418;2022-09-09T08:00:58;16.20;99.90
18773;DHT22;9515;50.810;4.418;2022-09-09T08:03:24;16.40;99.90
18773;DHT22;9515;50.810;4.418;2022-09-09T08:05:49;16.50;99.90
18773;DHT22;9515;50.810;4.418;2022-09-09T08:08:15;16.40;99.90
18773;DHT22;9515;50.810;4.418;2022-09-09T08:10:42;16.70;99.90
18773;DHT22;9515;50.810;4.418;2022-09-09T08:13:08;17.40;99.90
18773;DHT22;9515;50.810;4.418;2022-09-09T08:15:34;17.80;99.90
18773;DHT22;9515;50.810;4.418;2022-09-09T08:18:00;17.90;99.90
18773;DHT22;9515;50.810;4.418;2022-09-09T08:20:25;17.80;99.90
18773;DHT22;9515;50.810;4.418;2022-09-09T08:22:51;18.10;99.90
18773;DHT22;9515;50.810;4.418;2022-09-09T08:25:17;18.20;99.90
18773;DHT22;9515;50.810;4.418;2022-09-09T08:27:42;17.90;99.90
18773;DHT22;9515;50.810;4.418;2022-09-09T08:30:09;18.00;99.90
18773;DHT22;9515;50.810;4.418;2022-09-09T08:32:35;18.30;99.90
18773;DHT22;9515;50.810;4.418;2022-09-09T08:35:01;18.40;99.90
18773;DHT22;9515;50.810;4.418;2022-09-09T08:37:26;18.30;99.90
18773;DHT22;9515;50.810;4.418;2022-09-09T08:39:52;18.30;99.90
18773;DHT22;9515;50.810;4.418;2022-09-09T08:42:23;17.90;99.90
18773;DHT22;9515;50.810;4.418;2022-09-09T08:45:03;17.80;99.90
18773;DHT22;9515;50.810;4.418;2022-09-09T08:50:24;17.70;99.90
18773;DHT22;9515;50.810;4.418;2022-09-09T08:53:04;17.60;99.90
18773;DHT22;9515;50.810;4.418;2022-09-09T08:55:43;17.40;99.90
18773;DHT22;9515;50.810;4.418;2022-09-09T08:58:21;17.30;99.90
18773;DHT22;9515;50.810;4.418;2022-09-09T09:03:56;17.20;99.90
18773;DHT22;9515;50.810;4.418;2022-09-09T09:12:01;17.00;99.90
18773;DHT22;9515;50.810;4.418;2022-09-09T09:14:28;16.90;99.90
18773;DHT22;9515;50.810;4.418;2022-09-09T09:17:04;16.70;99.90
18773;DHT22;9515;50.810;4.418;2022-09-09T09:19:34;16.80;99.90
18773;DHT22;9515;50.810;4.418;2022-09-09T09:22:19;16.90;99.90
18773;DHT22;9515;50.810;4.418;2022-09-09T09:24:56;16.80;99.90
18773;DHT22;9515;50.810;4.418;2022-09-09T09:30:02;16.70;99.90
18773;DHT22;9515;50.810;4.418;2022-09-09T09:32:33;16.50;99.90
18773;DHT22;9515;50.810;4.418;2022-09-09T09:35:01;16.40;99.90
18773;DHT22;9515;50.810;4.418;2022-09-09T09:37:32;16.60;99.90
18773;DHT22;9515;50.810;4.418;2022-09-09T09:40:17;16.60;99.90
18773;DHT22;9515;50.810;4.418;2022-09-09T09:43:02;16.50;99.90
18773;DHT22;9515;50.810;4.418;2022-09-09T09:45:43;16.60;99.90
18773;DHT22;9515;50.810;4.418;2022-09-09T09:48:13;16.80;99.90
18773;DHT22;9515;50.810;4.418;2022-09-09T09:56:08;17.00;99.90
18773;DHT22;9515;50.810;4.418;2022-09-09T10:01:04;16.80;99.90
18773;DHT22;9515;50.810;4.418;2022-09-09T10:03:32;16.80;99.90
18773;DHT22;9515;50.810;4.418;2022-09-09T10:05:58;17.00;99.90
18773;DHT22;9515;50.810;4.418;2022-09-09T10:08:25;16.90;99.90
18773;DHT22;9515;50.810;4.418;2022-09-09T10:19:00;17.50;99.90
18773;DHT22;9515;50.810;4.418;2022-09-09T10:21:44;17.10;99.90
18773;DHT22;9515;50.810;4.418;2022-09-09T10:30:10;17.20;99.90
18773;DHT22;9515;50.810;4.418;2022-09-09T10:33:08;17.50;99.90
18773;DHT22;9515;50.810;4.418;2022-09-09T10:38:42;17.70;99.90
18773;DHT22;9515;50.810;4.418;2022-09-09T10:52:02;18.50;99.90
18773;DHT22;9515;50.810;4.418;2022-09-09T10:57:04;18.90;99.90
18773;DHT22;9515;50.810;4.418;2022-09-09T10:59:52;19.00;99.90
18773;DHT22;9515;50.810;4.418;2022-09-09T11:02:27;19.20;99.90
18773;DHT22;9515;50.810;4.418;2022-09-09T11:05:05;19.30;99.90
18773;DHT22;9515;50.810;4.418;2022-09-09T11:08:18;19.50;99.90
18773;DHT22;9515;50.810;4.418;2022-09-09T11:13:11;19.70;99.90
18773;DHT22;9515;50.810;4.418;2022-09-09T11:15:49;19.80;99.90
18773;DHT22;9515;50.810;4.418;2022-09-09T11:18:21;19.60;99.90
18773;DHT22;9515;50.810;4.418;2022-09-09T11:20:59;19.60;99.90
18773;DHT22;9515;50.810;4.418;2022-09-09T11:23:41;19.80;99.90
18773;DHT22;9515;50.810;4.418;2022-09-09T11:26:16;20.20;99.90
18773;DHT22;9515;50.810;4.418;2022-09-09T11:44:41;20.20;99.90
18773;DHT22;9515;50.810;4.418;2022-09-09T11:47:28;20.00;99.90
18773;DHT22;9515;50.810;4.418;2022-09-09T11:52:46;19.80;99.90
18773;DHT22;9515;50.810;4.418;2022-09-09T11:55:32;19.50;99.90
18773;DHT22;9515;50.810;4.418;2022-09-09T11:58:25;19.80;99.90
18773;DHT22;9515;50.810;4.418;2022-09-09T12:00:50;20.00;99.90
18773;DHT22;9515;50.810;4.418;2022-09-09T12:03:48;20.00;99.90
18773;DHT22;9515;50.810;4.418;2022-09-09T12:08:45;20.60;99.90
18773;DHT22;9515;50.810;4.418;2022-09-09T12:11:12;20.70;99.90
18773;DHT22;9515;50.810;4.418;2022-09-09T12:13:57;20.60;99.90
18773;DHT22;9515;50.810;4.418;2022-09-09T12:16:33;20.70;99.90
18773;DHT22;9515;50.810;4.418;2022-09-09T12:19:18;21.00;99.90
18773;DHT22;9515;50.810;4.418;2022-09-09T12:24:11;20.70;99.90
18773;DHT22;9515;50.810;4.418;2022-09-09T12:26:51;20.70;99.90
18773;DHT22;9515;50.810;4.418;2022-09-09T12:31:59;20.40;99.90
18773;DHT22;9515;50.810;4.418;2022-09-09T12:34:34;20.60;99.90
18773;DHT22;9515;50.810;4.418;2022-09-09T12:37:41;20.90;99.90
18773;DHT22;9515;50.810;4.418;2022-09-09T12:40:01;21.10;99.90
18773;DHT22;9515;50.810;4.418;2022-09-09T12:42:28;21.00;99.90
18773;DHT22;9515;50.810;4.418;2022-09-09T12:45:00;21.00;99.90
18773;DHT22;9515;50.810;4.418;2022-09-09T12:47:38;21.20;99.90
18773;DHT22;9515;50.810;4.418;2022-09-09T12:50:25;21.40;99.90
18773;DHT22;9515;50.810;4.418;2022-09-09T12:52:57;21.30;99.90
18773;DHT22;9515;50.810;4.418;2022-09-09T12:55:27;21.70;99.90
18773;DHT22;9515;50.810;4.418;2022-09-09T12:57:56;21.50;99.90
18773;DHT22;9515;50.810;4.418;2022-09-09T13:00:24;21.50;99.90
18773;DHT22;9515;50.810;4.418;2022-09-09T13:05:22;21.50;99.90
18773;DHT22;9515;50.810;4.418;2022-09-09T13:07:48;22.00;99.90
18773;DHT22;9515;50.810;4.418;2022-09-09T13:10:24;22.00;99.90
18773;DHT22;9515;50.810;4.418;2022-09-09T13:12:50;22.20;99.90
18773;DHT22;9515;50.810;4.418;2022-09-09T13:15:23;22.30;99.90
18773;DHT22;9515;50.810;4.418;2022-09-09T13:17:52;22.60;99.90
18773;DHT22;9515;50.810;4.418;2022-09-09T13:20:19;22.90;99.90
18773;DHT22;9515;50.810;4.418;2022-09-09T13:22:48;23.10;99.90
18773;DHT22;9515;50.810;4.418;2022-09-09T13:25:18;23.30;99.90
18773;DHT22;9515;50.810;4.418;2022-09-09T13:33:03;23.90;99.90
18773;DHT22;9515;50.810;4.418;2022-09-09T13:35:30;24.10;99.90
18773;DHT22;9515;50.810;4.418;2022-09-09T13:37:56;25.10;99.90
18773;DHT22;9515;50.810;4.418;2022-09-09T13:40:23;25.30;99.90
18773;DHT22;9515;50.810;4.418;2022-09-09T13:42:56;24.50;99.90
18773;DHT22;9515;50.810;4.418;2022-09-09T13:45:24;24.70;99.90
18773;DHT22;9515;50.810;4.418;2022-09-09T13:47:53;25.40;99.90
18773;DHT22;9515;50.810;4.418;2022-09-09T13:50:29;25.20;99.90
18773;DHT22;9515;50.810;4.418;2022-09-09T13:52:59;25.10;99.90
18773;DHT22;9515;50.810;4.418;2022-09-09T13:55:29;24.90;99.90
18773;DHT22;9515;50.810;4.418;2022-09-09T13:58:00;24.70;99.90
18773;DHT22;9515;50.810;4.418;2022-09-09T14:00:32;24.90;99.90
18773;DHT22;9515;50.810;4.418;2022-09-09T14:02:58;24.40;99.90
18773;DHT22;9515;50.810;4.418;2022-09-09T14:05:25;23.80;99.90
18773;DHT22;9515;50.810;4.418;2022-09-09T14:07:51;23.40;99.90
18773;DHT22;9515;50.810;4.418;2022-09-09T14:10:17;23.70;99.90
18773;DHT22;9515;50.810;4.418;2022-09-09T14:12:42;23.70;99.90
18773;DHT22;9515;50.810;4.418;2022-09-09T14:15:10;23.50;99.90
18773;DHT22;9515;50.810;4.418;2022-09-09T14:17:36;23.70;99.90
18773;DHT22;9515;50.810;4.418;2022-09-09T14:20:03;24.30;99.90
18773;DHT22;9515;50.810;4.418;2022-09-09T14:22:33;24.80;99.90
18773;DHT22;9515;50.810;4.418;2022-09-09T14:24:58;23.80;99.90
18773;DHT22;9515;50.810;4.418;2022-09-09T14:27:24;23.50;99.90
18773;DHT22;9515;50.810;4.418;2022-09-09T14:29:52;23.30;99.90
18773;DHT22;9515;50.810;4.418;2022-09-09T14:32:18;23.30;99.90
18773;DHT22;9515;50.810;4.418;2022-09-09T14:34:43;23.40;99.90
18773;DHT22;9515;50.810;4.418;2022-09-09T14:37:09;23.30;99.90
18773;DHT22;9515;50.810;4.418;2022-09-09T14:39:35;23.20;99.90
18773;DHT22;9515;50.810;4.418;2022-09-09T14:42:01;23.30;99.90
18773;DHT22;9515;50.810;4.418;2022-09-09T14:44:27;23.60;99.90
18773;DHT22;9515;50.810;4.418;2022-09-09T14:46:53;23.90;99.90
18773;DHT22;9515;50.810;4.418;2022-09-09T14:49:19;23.50;99.90
18773;DHT22;9515;50.810;4.418;2022-09-09T14:51:45;23.50;99.90
18773;DHT22;9515;50.810;4.418;2022-09-09T14:54:11;23.30;99.90
18773;DHT22;9515;50.810;4.418;2022-09-09T14:56:37;23.30;99.90
18773;DHT22;9515;50.810;4.418;2022-09-09T14:59:03;23.40;99.90
18773;DHT22;9515;50.810;4.418;2022-09-09T15:01:31;23.30;99.90
18773;DHT22;9515;50.810;4.418;2022-09-09T15:04:03;23.60;99.90
18773;DHT22;9515;50.810;4.418;2022-09-09T15:06:32;23.80;99.90
18773;DHT22;9515;50.810;4.418;2022-09-09T15:08:59;23.30;99.90
18773;DHT22;9515;50.810;4.418;2022-09-09T15:11:30;23.00;99.90
18773;DHT22;9515;50.810;4.418;2022-09-09T15:13:56;22.80;99.90
18773;DHT22;9515;50.810;4.418;2022-09-09T15:16:25;22.80;99.90
18773;DHT22;9515;50.810;4.418;2022-09-09T15:18:53;23.10;99.90
18773;DHT22;9515;50.810;4.418;2022-09-09T15:21:21;23.50;99.90
18773;DHT22;9515;50.810;4.418;2022-09-09T15:23:48;23.30;99.90
18773;DHT22;9515;50.810;4.418;2022-09-09T15:26:15;23.40;99.90
18773;DHT22;9515;50.810;4.418;2022-09-09T15:28:42;23.40;99.90
18773;DHT22;9515;50.810;4.418;2022-09-09T15:33:52;22.60;99.90
18773;DHT22;9515;50.810;4.418;2022-09-09T15:36:23;22.50;99.90
18773;DHT22;9515;50.810;4.418;2022-09-09T15:38:50;22.10;99.90
18773;DHT22;9515;50.810;4.418;2022-09-09T15:41:18;21.90;99.90
18773;DHT22;9515;50.810;4.418;2022-09-09T15:43:48;22.00;99.90
18773;DHT22;9515;50.810;4.418;2022-09-09T15:46:22;21.90;99.90
18773;DHT22;9515;50.810;4.418;2022-09-09T15:49:18;21.30;99.90
18773;DHT22;9515;50.810;4.418;2022-09-09T15:51:45;21.40;99.90
18773;DHT22;9515;50.810;4.418;2022-09-09T15:54:17;21.50;99.90
18773;DHT22;9515;50.810;4.418;2022-09-09T15:56:50;21.60;99.90
18773;DHT22;9515;50.810;4.418;2022-09-09T15:59:16;21.50;99.90
18773;DHT22;9515;50.810;4.418;2022-09-09T16:01:42;21.50;99.90
18773;DHT22;9515;50.810;4.418;2022-09-09T16:04:12;21.60;99.90
18773;DHT22;9515;50.810;4.418;2022-09-09T16:07:09;21.80;99.90
18773;DHT22;9515;50.810;4.418;2022-09-09T16:09:34;21.90;99.90
18773;DHT22;9515;50.810;4.418;2022-09-09T16:12:02;22.20;99.90
18773;DHT22;9515;50.810;4.418;2022-09-09T16:14:32;22.20;99.90
18773;DHT22;9515;50.810;4.418;2022-09-09T16:17:04;22.10;99.90
18773;DHT22;9515;50.810;4.418;2022-09-09T16:19:33;22.10;99.90
18773;DHT22;9515;50.810;4.418;2022-09-09T16:22:00;21.90;99.90
18773;DHT22;9515;50.810;4.418;2022-09-09T16:24:26;21.90;99.90
18773;DHT22;9515;50.810;4.418;2022-09-09T16:26:53;22.00;99.90
18773;DHT22;9515;50.810;4.418;2022-09-09T16:29:20;21.90;99.90
18773;DHT22;9515;50.810;4.418;2022-09-09T16:31:48;21.40;99.90
18773;DHT22;9515;50.810;4.418;2022-09-09T16:34:15;20.70;99.90
18773;DHT22;9515;50.810;4.418;2022-09-09T16:36:45;20.30;99.90
18773;DHT22;9515;50.810;4.418;2022-09-09T16:39:13;19.90;99.90
18773;DHT22;9515;50.810;4.418;2022-09-09T16:41:40;19.70;99.90
18773;DHT22;9515;50.810;4.418;2022-09-09T16:44:08;19.60;99.90
18773;DHT22;9515;50.810;4.418;2022-09-09T16:46:39;19.40;99.90
18773;DHT22;9515;50.810;4.418;2022-09-09T16:49:11;19.20;99.90
18773;DHT22;9515;50.810;4.418;2022-09-09T16:51:42;19.10;99.90
18773;DHT22;9515;50.810;4.418;2022-09-09T16:54:09;19.20;99.90
18773;DHT22;9515;50.810;4.418;2022-09-09T16:56:38;19.30;99.90
18773;DHT22;9515;50.810;4.418;2022-09-09T16:59:11;19.40;99.90
18773;DHT22;9515;50.810;4.418;2022-09-09T17:01:39;19.40;99.90
18773;DHT22;9515;50.810;4.418;2022-09-09T17:04:14;19.50;99.90
18773;DHT22;9515;50.810;4.418;2022-09-09T17:06:41;19.70;99.90
18773;DHT22;9515;50.810;4.418;2022-09-09T17:09:11;19.90;99.90
18773;DHT22;9515;50.810;4.418;2022-09-09T17:11:39;19.90;99.90
18773;DHT22;9515;50.810;4.418;2022-09-09T17:14:07;19.60;99.90
18773;DHT22;9515;50.810;4.418;2022-09-09T17:16:34;19.60;99.90
18773;DHT22;9515;50.810;4.418;2022-09-09T17:19:01;19.70;99.90
18773;DHT22;9515;50.810;4.418;2022-09-09T17:21:28;19.60;99.90
18773;DHT22;9515;50.810;4.418;2022-09-09T17:23:55;19.70;99.90
18773;DHT22;9515;50.810;4.418;2022-09-09T17:26:25;19.60;99.90
18773;DHT22;9515;50.810;4.418;2022-09-09T17:28:55;19.80;99.90
18773;DHT22;9515;50.810;4.418;2022-09-09T17:31:25;19.70;99.90
18773;DHT22;9515;50.810;4.418;2022-09-09T17:33:51;19.80;99.90
18773;DHT22;9515;50.810;4.418;2022-09-09T17:36:26;19.70;99.90
18773;DHT22;9515;50.810;4.418;2022-09-09T17:38:53;19.40;99.90
18773;DHT22;9515;50.810;4.418;2022-09-09T17:41:22;19.40;99.90
18773;DHT22;9515;50.810;4.418;2022-09-09T17:43:49;19.40;99.90
18773;DHT22;9515;50.810;4.418;2022-09-09T17:46:18;19.30;99.90
18773;DHT22;9515;50.810;4.418;2022-09-09T17:48:45;19.20;99.90
18773;DHT22;9515;50.810;4.418;2022-09-09T17:51:15;19.30;99.90
18773;DHT22;9515;50.810;4.418;2022-09-09T17:53:45;19.30;99.90
18773;DHT22;9515;50.810;4.418;2022-09-09T17:56:13;19.20;99.90
18773;DHT22;9515;50.810;4.418;2022-09-09T17:58:39;19.00;99.90
18773;DHT22;9515;50.810;4.418;2022-09-09T18:01:14;18.90;99.90
18773;DHT22;9515;50.810;4.418;2022-09-09T18:03:41;18.90;99.90
18773;DHT22;9515;50.810;4.418;2022-09-09T18:06:13;18.80;99.90
18773;DHT22;9515;50.810;4.418;2022-09-09T18:08:41;18.90;99.90
18773;DHT22;9515;50.810;4.418;2022-09-09T18:11:08;19.00;99.90
18773;DHT22;9515;50.810;4.418;2022-09-09T18:13:33;19.20;99.90
18773;DHT22;9515;50.810;4.418;2022-09-09T18:16:00;19.20;99.90
18773;DHT22;9515;50.810;4.418;2022-09-09T18:18:28;19.10;99.90
18773;DHT22;9515;50.810;4.418;2022-09-09T18:21:01;19.00;99.90
18773;DHT22;9515;50.810;4.418;2022-09-09T18:23:28;19.00;99.90
18773;DHT22;9515;50.810;4.418;2022-09-09T18:25:55;19.00;99.90
18773;DHT22;9515;50.810;4.418;2022-09-09T18:28:25;19.10;99.90
18773;DHT22;9515;50.810;4.418;2022-09-09T18:30:52;19.00;99.90